SCSE/LSC METAR and TAF weather

Enter ICAO airport designator
Station Type Date Time Source
SCSE METAR 2019/08/19 01:00 UTC NOAA

SCSE 190100Z 11003KT CAVOK 11/09 Q1019


Station Type Date Time Source
SCSE Decoded METAR 2019/08/19 01:00 UTC NOAA

Station name not available
Aug 18, 2019 - 09:00 PM EDT / 2019.08.19 0100 UTC
Wind: from the ESE (110 degrees) at 3 MPH (3 KT):0
Visibility: greater than 7 mile(s):0
Temperature: 51 F (11 C)
Dew Point: 48 F (9 C)
Relative Humidity: 87%
Pressure (altimeter): 30.09 in. Hg (1019 hPa)
ob: SCSE 190100Z 11003KT CAVOK 11/09 Q1019
cycle: 1

Station Type Date Time Source
SCSE TAF 2019/08/18 12:03 UTC NOAA

TAF TAF SCSE 181028Z 1812/1824 11004KT CAVOK TX16/1819Z TN06/1812Z
TEMPO 1813/1815 VRB02KT SCT015 BKN020
BECMG 1816/1818 28010KT
TEMPO 1820/1822 30013KT

Example: see airport list